Terminal Aerodrome Forecast
Issued by NWS

Home | Current Version | Previous Version | Text Only | Print | Product List | Glossary On
Versions: 1 2 3 4 5 6 7 8 9 10 11 12 13 14 15 16 17 18 19 20 21 22 23 24 25 26
000
FTUS45 KGJT 302336
TAFVEL
TAF
KVEL 302336Z 0100/0124 10004KT P6SM OVC080
     FM010300 33006KT P6SM OVC100
     FM010700 32004KT P6SM SCT120
     FM011600 15006KT P6SM BKN200
     FM011800 21006KT P6SM BKN100=

USA.gov is the U.S. government's official web portal to all federal, state and local government web resources and services.